Time;durP1;ratioP1;P1;durP2;ratioP2;P2;SDS_P1;SDS_P2;PMS_P1;PMS_P2;Temp;Humidity;BMP_temperature;BMP_pressure;BME280_temperature;BME280_humidity;BME280_pressure;Samples;Min_cycle;Max_cycle;Signal;HPM_P1;HPM_P2
2022/03/07 00:00:59;;;;;;;;;62.67;44.00;;;;;5.05;50.92;102072.06;5078252;27;46355;-57
2022/03/07 00:03:25;;;;;;;;;63.33;48.00;;;;;5.01;51.12;102076.47;5089936;27;45330;-58
2022/03/07 00:05:50;;;;;;;;;72.00;53.33;;;;;5.02;51.29;102072.13;5088473;27;45305;-59
2022/03/07 00:08:16;;;;;;;;;62.00;45.67;;;;;5.01;51.47;102071.25;5093396;27;45506;-60
2022/03/07 00:10:41;;;;;;;;;61.33;48.00;;;;;5.00;50.38;102068.66;5106691;27;45394;-56
2022/03/07 00:13:07;;;;;;;;;63.33;48.00;;;;;4.97;50.63;102053.03;5109078;27;45429;-57
2022/03/07 00:15:32;;;;;;;;;64.67;48.67;;;;;4.95;50.66;102062.63;5111070;27;45283;-59
2022/03/07 00:17:58;;;;;;;;;55.33;45.00;;;;;4.92;51.61;102060.94;5109115;27;45492;-56
2022/03/07 00:20:24;;;;;;;;;61.67;47.00;;;;;4.92;51.72;102070.53;5105905;27;45887;-59
2022/03/07 00:22:49;;;;;;;;;67.67;51.00;;;;;4.90;50.95;102064.47;5111254;27;45373;-59
2022/03/07 00:25:16;;;;;;;;;70.00;52.33;;;;;4.87;51.18;102067.97;5111362;27;45691;-58
2022/03/07 00:27:42;;;;;;;;;62.33;49.00;;;;;4.87;51.53;102072.34;5108023;27;46052;-59
2022/03/07 00:30:08;;;;;;;;;67.00;51.00;;;;;4.83;51.16;102073.28;5106021;27;45392;-57
2022/03/07 00:32:34;;;;;;;;;59.67;47.33;;;;;4.79;51.42;102068.97;5112241;27;45184;-58
2022/03/07 00:35:00;;;;;;;;;66.67;47.00;;;;;4.73;51.39;102072.53;5112310;27;45308;-58
2022/03/07 00:37:26;;;;;;;;;60.33;48.67;;;;;4.72;51.56;102074.28;5110351;27;45627;-59
2022/03/07 00:39:51;;;;;;;;;72.00;48.67;;;;;4.72;51.71;102074.28;5108693;27;46025;-57
2022/03/07 00:42:17;;;;;;;;;61.33;47.33;;;;;4.71;51.27;102069.94;5109570;27;45207;-59
2022/03/07 00:44:42;;;;;;;;;61.00;46.00;;;;;4.71;51.32;102066.47;5111666;27;45241;-58
2022/03/07 00:47:08;;;;;;;;;67.33;48.67;;;;;4.69;51.54;102069.09;5112681;27;45374;-56
2022/03/07 00:49:34;;;;;;;;;66.33;47.33;;;;;4.67;51.81;102068.28;5109885;27;46006;-55
2022/03/07 00:52:00;;;;;;;;;60.33;43.33;;;;;4.66;52.31;102066.53;5106752;27;45322;-56
2022/03/07 00:54:25;;;;;;;;;59.33;46.33;;;;;4.64;51.85;102068.28;5108798;27;45446;-56
2022/03/07 00:56:51;;;;;;;;;62.33;46.33;;;;;4.61;51.78;102070.94;5106965;27;45685;-59
2022/03/07 00:59:17;;;;;;;;;65.33;47.00;;;;;4.58;51.62;102067.50;5110088;27;45483;-59
2022/03/07 01:01:42;;;;;;;;;59.33;44.00;;;;;4.56;51.81;102067.53;5107957;27;45456;-59
2022/03/07 01:04:08;;;;;;;;;58.00;44.00;;;;;4.54;51.49;102061.47;5101833;27;45370;-57
2022/03/07 01:06:33;;;;;;;;;63.00;46.67;;;;;4.53;51.42;102070.19;5081057;27;45771;-56
2022/03/07 01:08:59;;;;;;;;;61.00;44.67;;;;;4.52;52.03;102073.69;5080536;28;46064;-56
2022/03/07 01:11:25;;;;;;;;;57.00;45.00;;;;;4.52;51.52;102065.84;5080788;27;45579;-56
2022/03/07 01:13:50;;;;;;;;;57.33;43.00;;;;;4.53;51.78;102067.59;5097168;27;45338;-56
2022/03/07 01:16:16;;;;;;;;;62.00;45.00;;;;;4.53;51.92;102064.09;5098081;27;45174;-52
2022/03/07 01:18:41;;;;;;;;;63.33;45.00;;;;;4.53;51.81;102067.59;5096008;27;45709;-60
2022/03/07 01:21:07;;;;;;;;;61.00;42.00;;;;;4.52;52.42;102065.00;5097572;27;45431;-57
2022/03/07 01:23:32;;;;;;;;;63.00;47.67;;;;;4.51;52.34;102065.88;5108977;27;45544;-57
2022/03/07 01:25:58;;;;;;;;;53.67;42.00;;;;;4.48;51.67;102056.31;5102523;27;45892;-59
2022/03/07 01:28:23;;;;;;;;;65.00;47.00;;;;;4.49;51.79;102063.28;5111657;27;45409;-58
2022/03/07 01:30:49;;;;;;;;;56.33;42.00;;;;;4.48;51.99;102059.81;5110130;27;45457;-58
2022/03/07 01:33:15;;;;;;;;;54.33;43.00;;;;;4.46;52.01;102060.72;5098897;27;45237;-58
2022/03/07 01:35:40;;;;;;;;;57.00;44.33;;;;;4.42;52.10;102062.50;5080766;28;45288;-58
2022/03/07 01:38:06;;;;;;;;;55.33;39.33;;;;;4.39;51.90;102057.31;5080591;28;46008;-58
2022/03/07 01:40:31;;;;;;;;;37.25;31.75;;;;;4.36;52.31;102053.91;5081826;27;45427;-58
2022/03/07 01:42:57;;;;;;;;;60.50;44.00;;;;;4.33;52.53;102057.38;5104571;27;45370;-58
2022/03/07 01:45:22;;;;;;;;;61.50;45.00;;;;;4.30;52.68;102060.03;5089090;27;45296;-58
2022/03/07 01:47:48;;;;;;;;;50.50;41.75;;;;;4.29;53.12;102052.25;5083915;27;46012;-58
2022/03/07 01:50:20;;;;;;;;;61.33;42.33;;;;;4.28;52.77;102050.50;5084109;27;45362;-58
2022/03/07 01:52:48;;;;;;;;;48.25;42.75;;;;;4.26;52.82;102044.44;5084355;27;45302;-58
2022/03/07 01:55:14;;;;;;;;;53.50;38.75;;;;;4.25;52.08;102035.75;5084264;27;45260;-60
2022/03/07 01:57:42;;;;;;;;;53.00;40.67;;;;;4.23;52.13;102047.09;5083748;27;46204;-59
2022/03/07 02:00:16;;;;;;;;;55.67;43.67;;;;;4.18;52.45;102045.38;5083881;27;45343;-59
2022/03/07 02:02:43;;;;;;;;;51.67;44.00;;;;;4.16;52.19;102041.06;5067189;28;45304;-59
2022/03/07 02:05:10;;;;;;;;;57.67;42.33;;;;;4.17;52.70;102048.00;5084026;27;45493;-59
2022/03/07 02:07:37;;;;;;;;;57.33;41.33;;;;;4.13;52.23;102039.38;5083916;27;45404;-59
2022/03/07 02:10:03;;;;;;;;;47.00;33.33;;;;;4.13;52.66;102033.31;5065537;28;45296;-58
2022/03/07 02:12:29;;;;;;;;;58.67;44.00;;;;;4.07;52.99;102026.41;5092972;27;45341;-58
2022/03/07 02:14:54;;;;;;;;;55.67;44.67;;;;;4.04;52.56;102028.19;5085854;27;45401;-58
2022/03/07 02:17:20;;;;;;;;;58.67;44.33;;;;;3.99;52.92;102030.84;5083636;27;46485;-59
2022/03/07 02:19:45;;;;;;;;;57.67;43.33;;;;;3.95;52.45;102037.00;5083476;28;45347;-58
2022/03/07 02:22:11;;;;;;;;;57.00;43.33;;;;;3.92;52.76;102027.44;5083997;28;45303;-59
2022/03/07 02:24:37;;;;;;;;;50.67;40.33;;;;;3.92;52.93;102024.84;5083645;27;45460;-58
2022/03/07 02:27:06;;;;;;;;;56.00;44.33;;;;;3.93;52.76;102030.91;5083478;28;45299;-58
2022/03/07 02:29:33;;;;;;;;;58.33;42.33;;;;;3.88;53.09;102020.56;5083246;27;45394;-59
2022/03/07 02:31:59;;;;;;;;;49.00;38.33;;;;;3.87;53.33;102016.22;5083700;27;45374;-58
2022/03/07 02:34:25;;;;;;;;;48.67;41.00;;;;;3.86;52.91;102011.88;5083583;27;45603;-58
2022/03/07 02:36:51;;;;;;;;;52.00;43.00;;;;;3.85;52.82;102009.28;5083612;27;46177;-59
2022/03/07 02:39:17;;;;;;;;;48.00;41.00;;;;;3.84;53.03;102015.38;5088371;27;45822;-59
2022/03/07 02:41:43;;;;;;;;;57.25;42.25;;;;;3.84;52.79;102004.94;5104039;27;45301;-59
2022/03/07 02:44:09;;;;;;;;;61.00;42.00;;;;;3.81;53.17;102008.47;5097960;27;45554;-58
2022/03/07 02:46:35;;;;;;;;;52.67;42.00;;;;;3.82;53.05;102004.13;5077498;27;46708;-59
2022/03/07 02:49:02;;;;;;;;;61.00;43.33;;;;;3.81;53.03;102003.25;5084160;27;45401;-59
2022/03/07 02:51:28;;;;;;;;;50.33;40.33;;;;;3.78;53.16;102002.41;5082183;28;45332;-59
2022/03/07 02:53:53;;;;;;;;;54.67;38.67;;;;;3.76;52.99;102002.44;5083390;28;45398;-59
2022/03/07 02:56:19;;;;;;;;;51.67;41.67;;;;;3.75;52.77;101986.81;5083110;27;45212;-59
2022/03/07 02:58:44;;;;;;;;;51.00;40.33;;;;;3.75;53.22;101994.63;5082889;27;45258;-59
2022/03/07 03:01:11;;;;;;;;;32.33;20.33;;;;;3.74;53.40;101991.16;5083117;27;45258;-59
2022/03/07 03:03:37;;;;;;;;;57.33;47.33;;;;;3.72;53.42;101994.69;5083136;27;45148;-59
2022/03/07 03:06:03;;;;;;;;;53.00;40.67;;;;;3.71;53.15;101990.31;5082991;27;45260;-59
2022/03/07 03:08:28;;;;;;;;;62.00;43.00;;;;;3.69;53.26;101989.47;5082911;27;45268;-59
2022/03/07 03:10:55;;;;;;;;;50.67;41.67;;;;;3.67;53.26;101988.63;5083081;28;45354;-59
2022/03/07 03:13:22;;;;;;;;;58.00;43.67;;;;;3.66;53.21;101994.72;5093805;27;45297;-59
2022/03/07 03:15:49;;;;;;;;;58.33;41.00;;;;;3.66;53.59;101982.56;5082605;28;45332;-59
2022/03/07 03:18:15;;;;;;;;;51.33;42.00;;;;;3.66;53.53;101987.78;5082842;27;45224;-59
2022/03/07 03:20:42;;;;;;;;;54.33;42.33;;;;;3.64;53.58;101993.00;5082896;27;45185;-59
2022/03/07 03:23:08;;;;;;;;;53.00;45.00;;;;;3.61;53.43;101984.34;5082946;27;45244;-59
2022/03/07 03:25:33;;;;;;;;;47.33;40.33;;;;;3.57;53.73;101982.66;5082654;28;45642;-59
2022/03/07 03:27:59;;;;;;;;;46.00;38.67;;;;;3.54;53.86;101985.28;5082447;27;45368;-59
2022/03/07 03:30:24;;;;;;;;;60.00;40.67;;;;;3.46;53.97;101980.16;5082733;28;45293;-59
2022/03/07 03:32:50;;;;;;;;;55.33;42.33;;;;;3.47;53.97;101978.41;5082570;28;45233;-59
2022/03/07 03:35:15;;;;;;;;;53.00;40.67;;;;;3.46;53.86;101992.31;5081346;28;45364;-59
2022/03/07 03:37:41;;;;;;;;;38.67;32.67;;;;;3.46;53.91;101981.91;5082477;27;45394;-59
2022/03/07 03:40:10;;;;;;;;;50.33;37.33;;;;;3.42;53.81;101980.22;5094942;27;45228;-58
2022/03/07 03:42:36;;;;;;;;;48.67;36.67;;;;;3.40;53.84;101984.56;5102524;27;45503;-59
2022/03/07 03:45:05;;;;;;;;;55.67;37.33;;;;;3.35;54.02;101988.09;5089669;27;46128;-59
2022/03/07 03:47:33;;;;;;;;;45.67;38.33;;;;;3.35;53.84;101988.09;5081994;27;45345;-59
2022/03/07 03:49:59;;;;;;;;;47.00;41.33;;;;;3.35;53.99;101990.69;5082569;28;45376;-58
2022/03/07 03:52:24;;;;;;;;;49.67;43.00;;;;;3.33;54.37;101989.84;5082634;28;45506;-59
2022/03/07 03:54:50;;;;;;;;;54.33;41.33;;;;;3.30;54.07;101989.84;5082337;27;45483;-59
2022/03/07 03:57:16;;;;;;;;;47.67;41.33;;;;;3.27;54.34;101997.72;5082109;28;45240;-59
2022/03/07 03:59:41;;;;;;;;;45.67;38.33;;;;;3.21;54.72;101989.94;5082191;28;45320;-58
2022/03/07 04:02:07;;;;;;;;;59.33;46.00;;;;;3.19;54.37;101994.31;5081714;27;45213;-59
2022/03/07 04:04:32;;;;;;;;;53.67;38.67;;;;;3.17;54.31;102000.41;5077137;27;46377;-59
2022/03/07 04:06:58;;;;;;;;;54.00;41.33;;;;;3.13;54.91;101991.75;5082386;27;45275;-59
2022/03/07 04:09:24;;;;;;;;;47.67;42.00;;;;;3.12;54.65;102002.19;5082267;28;45412;-59
2022/03/07 04:11:49;;;;;;;;;27.00;18.67;;;;;3.11;55.04;101992.66;5083622;27;45654;-59
2022/03/07 04:14:15;;;;;;;;;62.33;41.67;;;;;3.12;54.87;101992.63;5089208;27;46203;-59
2022/03/07 04:16:41;;;;;;;;;52.00;41.00;;;;;3.11;54.94;101992.66;5081256;28;45276;-59
2022/03/07 04:19:09;;;;;;;;;63.00;43.67;;;;;3.09;54.47;101990.06;5081378;28;45356;-59
2022/03/07 04:21:37;;;;;;;;;27.33;19.00;;;;;3.09;55.09;101992.66;5081876;27;45640;-59
2022/03/07 04:24:03;;;;;;;;;47.67;41.33;;;;;3.11;54.54;101987.44;5081694;27;46171;-59
2022/03/07 04:26:29;;;;;;;;;49.67;42.67;;;;;3.05;54.84;101994.41;5081648;27;45362;-59
2022/03/07 04:28:55;;;;;;;;;56.67;43.00;;;;;3.00;54.67;101995.31;5081677;28;45500;-59
2022/03/07 04:31:21;;;;;;;;;63.33;42.33;;;;;3.01;54.51;101997.94;5081655;28;45327;-59
2022/03/07 04:33:47;;;;;;;;;44.00;40.33;;;;;2.98;55.01;101995.34;5081588;28;45407;-58
2022/03/07 04:36:14;;;;;;;;;56.33;44.33;;;;;3.00;54.74;101997.91;5081745;27;45367;-59
2022/03/07 04:38:40;;;;;;;;;49.67;41.33;;;;;3.02;54.46;102004.00;5081772;27;45178;-59
2022/03/07 04:41:05;;;;;;;;;52.00;44.33;;;;;3.03;54.91;101992.72;5102084;27;45439;-59
2022/03/07 04:43:31;;;;;;;;;43.00;37.33;;;;;3.04;55.01;101999.63;5101393;27;45314;-59
2022/03/07 04:45:58;;;;;;;;;45.67;38.33;;;;;3.04;54.76;102005.72;5081556;28;45247;-59
2022/03/07 04:48:24;;;;;;;;;47.67;39.33;;;;;2.99;54.83;101999.66;5081496;28;45611;-59
2022/03/07 04:50:50;;;;;;;;;52.00;41.67;;;;;2.96;55.06;102002.28;5081701;27;45322;-59
2022/03/07 04:53:15;;;;;;;;;45.00;33.67;;;;;2.95;54.95;102005.78;5081094;28;45364;-59
2022/03/07 04:55:42;;;;;;;;;45.67;34.33;;;;;2.94;54.61;102009.25;5070394;27;45415;-59
2022/03/07 04:58:07;;;;;;;;;53.33;42.00;;;;;2.94;54.63;101998.00;5088066;27;45313;-59
2022/03/07 05:00:33;;;;;;;;;52.00;41.00;;;;;2.94;54.74;102005.78;5088073;27;45419;-59
2022/03/07 05:02:59;;;;;;;;;43.67;41.00;;;;;2.94;54.82;102005.78;5101842;27;46309;-59
2022/03/07 05:05:24;;;;;;;;;53.67;44.00;;;;;2.94;54.89;102005.78;5101669;27;45247;-59
2022/03/07 05:07:53;;;;;;;;;57.00;46.00;;;;;2.92;54.89;102005.78;5101969;27;45152;-59
2022/03/07 05:10:19;;;;;;;;;60.00;46.00;;;;;2.91;55.72;102006.66;5101706;27;45782;-59
2022/03/07 05:12:45;;;;;;;;;54.33;42.00;;;;;2.89;55.00;102011.03;5100973;27;46155;-58
2022/03/07 05:15:11;;;;;;;;;50.00;42.33;;;;;2.82;55.06;102009.34;5080512;27;45344;-59
2022/03/07 05:17:48;;;;;;;;;48.67;40.33;;;;;2.75;55.67;102005.03;5081124;28;45334;-59
2022/03/07 05:20:15;;;;;;;;;55.33;44.33;;;;;2.70;55.93;102007.69;5089380;27;45447;-59
2022/03/07 05:22:42;;;;;;;;;55.33;41.67;;;;;2.67;55.22;102007.69;5101342;27;45496;-59
2022/03/07 05:25:09;;;;;;;;;55.67;43.67;;;;;2.64;55.67;102006.88;5101345;27;45193;-59
2022/03/07 05:27:35;;;;;;;;;45.33;35.33;;;;;2.59;56.04;101996.47;5101169;27;45280;-59
2022/03/07 05:30:01;;;;;;;;;48.00;42.33;;;;;2.58;56.28;102007.75;5101730;27;45419;-59
2022/03/07 05:32:26;;;;;;;;;50.33;43.00;;;;;2.59;55.55;102003.41;5100980;27;45530;-59
2022/03/07 05:34:52;;;;;;;;;46.67;42.00;;;;;2.58;56.26;102002.56;5101212;27;45337;-59
2022/03/07 05:37:17;;;;;;;;;54.00;43.00;;;;;2.55;56.14;102007.78;5101407;27;45316;-59
2022/03/07 05:39:43;;;;;;;;;53.67;42.33;;;;;2.53;55.54;102004.34;5092202;27;45579;-59
2022/03/07 05:42:08;;;;;;;;;55.67;44.67;;;;;2.55;55.64;102010.38;5096779;27;45925;-59
2022/03/07 05:44:34;;;;;;;;;52.67;43.00;;;;;2.55;55.76;102013.00;5092076;27;45388;-59
2022/03/07 05:46:59;;;;;;;;;38.67;35.00;;;;;2.54;56.10;102015.59;5080705;27;45457;-59
2022/03/07 05:49:25;;;;;;;;;53.67;41.33;;;;;2.54;55.76;102010.41;5080437;28;45643;-59
2022/03/07 05:51:50;;;;;;;;;51.67;42.00;;;;;2.53;55.98;102014.75;5080433;28;46074;-59
2022/03/07 05:54:16;;;;;;;;;44.00;38.00;;;;;2.49;55.57;102008.69;5071273;27;45252;-59
2022/03/07 05:56:41;;;;;;;;;52.33;43.33;;;;;2.49;55.58;102013.88;5085293;27;45470;-60
2022/03/07 05:59:07;;;;;;;;;55.00;43.33;;;;;2.47;56.53;102010.44;5080362;28;45340;-59
2022/03/07 06:01:33;;;;;;;;;60.00;45.67;;;;;2.46;56.19;102015.66;5080103;28;46010;-59
2022/03/07 06:03:59;;;;;;;;;39.00;34.33;;;;;2.44;55.76;102012.16;5071317;27;45430;-59
2022/03/07 06:06:25;;;;;;;;;49.67;41.33;;;;;2.42;56.13;102013.91;5084877;27;45383;-59
2022/03/07 06:08:51;;;;;;;;;56.00;42.67;;;;;2.38;56.81;102013.09;5080731;28;45291;-59
2022/03/07 06:11:16;;;;;;;;;42.00;37.67;;;;;2.38;57.06;102020.88;5079993;27;45350;-59
2022/03/07 06:13:42;;;;;;;;;50.33;39.67;;;;;2.36;56.13;102019.13;5090724;27;45329;-59
2022/03/07 06:16:07;;;;;;;;;52.33;42.33;;;;;2.37;56.30;102016.56;5079850;28;45485;-59
2022/03/07 06:18:33;;;;;;;;;55.00;44.33;;;;;2.38;56.86;102025.22;5080451;28;45565;-57
2022/03/07 06:20:59;;;;;;;;;54.00;46.67;;;;;2.36;56.93;102020.00;5079811;27;46299;-57
2022/03/07 06:23:24;;;;;;;;;47.33;38.33;;;;;2.34;56.28;102028.69;5080052;28;45232;-57
2022/03/07 06:25:50;;;;;;;;;51.33;42.33;;;;;2.33;56.40;102026.97;5087228;27;45469;-57
2022/03/07 06:28:16;;;;;;;;;49.33;43.00;;;;;2.31;56.81;102026.97;5083621;28;45269;-59
2022/03/07 06:30:44;;;;;;;;;51.67;39.67;;;;;2.29;56.96;102028.72;5090000;27;45410;-59
2022/03/07 06:33:10;;;;;;;;;57.33;42.67;;;;;2.31;56.28;102031.31;5110085;27;45405;-58
2022/03/07 06:35:35;;;;;;;;;60.33;47.67;;;;;2.30;56.94;102016.59;5097182;27;45362;-58
2022/03/07 06:38:01;;;;;;;;;47.33;40.33;;;;;2.32;56.26;102028.69;5114752;27;45502;-57
2022/03/07 06:40:27;;;;;;;;;48.67;43.00;;;;;2.31;56.85;102029.56;5109889;27;45384;-57
2022/03/07 06:42:53;;;;;;;;;48.67;40.00;;;;;2.30;57.04;102035.66;5091838;27;45399;-57
2022/03/07 06:45:18;;;;;;;;;55.33;42.33;;;;;2.30;56.38;102038.25;5070766;27;45311;-57
2022/03/07 06:47:45;;;;;;;;;51.00;40.67;;;;;2.33;56.36;102037.38;5083237;27;45417;-58
2022/03/07 06:50:12;;;;;;;;;54.67;43.33;;;;;2.36;56.92;102042.53;5083126;27;45331;-57
2022/03/07 06:52:38;;;;;;;;;58.33;45.67;;;;;2.36;56.58;102037.34;5089553;27;45649;-58
2022/03/07 06:55:04;;;;;;;;;52.00;40.67;;;;;2.37;56.92;102039.97;5099383;27;45335;-59
2022/03/07 06:57:30;;;;;;;;;53.00;41.67;;;;;2.36;56.19;102047.75;5075899;28;45445;-59
2022/03/07 06:59:55;;;;;;;;;54.00;45.33;;;;;2.36;56.85;102039.94;5082915;27;45881;-60
2022/03/07 07:02:21;;;;;;;;;53.33;42.67;;;;;2.40;56.92;102029.53;5083079;28;45351;-59
2022/03/07 07:04:46;;;;;;;;;50.67;43.33;;;;;2.40;56.82;102033.88;5083295;28;45483;-60
2022/03/07 07:07:12;;;;;;;;;50.33;40.33;;;;;2.41;56.76;102031.25;5065126;28;45333;-60
2022/03/07 07:09:38;;;;;;;;;53.33;44.33;;;;;2.50;56.18;102036.41;5082812;27;45343;-60
2022/03/07 07:12:04;;;;;;;;;62.00;45.00;;;;;2.56;56.38;102030.31;5088217;27;45362;-60
2022/03/07 07:14:29;;;;;;;;;55.67;41.33;;;;;2.60;56.12;102032.00;5087220;27;45154;-60
2022/03/07 07:16:55;;;;;;;;;57.33;44.33;;;;;2.63;55.96;102039.81;5082945;27;45573;-60
2022/03/07 07:19:21;;;;;;;;;55.33;44.33;;;;;2.70;56.07;102036.31;5096249;27;45284;-60
2022/03/07 07:21:46;;;;;;;;;66.33;50.67;;;;;2.78;56.61;102028.47;5082511;27;45313;-60
2022/03/07 07:24:12;;;;;;;;;51.33;44.00;;;;;2.87;56.06;102035.34;5082516;28;45382;-60
2022/03/07 07:26:37;;;;;;;;;53.00;42.00;;;;;2.91;55.42;102030.09;5082853;28;45500;-60
2022/03/07 07:29:04;;;;;;;;;48.00;40.00;;;;;2.95;55.44;102028.34;5082363;27;45443;-60
2022/03/07 07:31:29;;;;;;;;;53.00;44.67;;;;;2.97;55.56;102029.19;5082687;28;45388;-60
2022/03/07 07:33:55;;;;;;;;;55.33;45.33;;;;;3.00;55.78;102029.16;5082625;28;45282;-61
2022/03/07 07:36:20;;;;;;;;;55.33;41.33;;;;;3.06;55.24;102031.72;5082153;28;45292;-58
2022/03/07 07:38:46;;;;;;;;;49.67;43.67;;;;;3.08;55.03;102036.06;5082568;27;45504;-61
2022/03/07 07:41:11;;;;;;;;;50.00;36.33;;;;;3.11;55.35;102037.75;5101715;27;45462;-61
2022/03/07 07:43:37;;;;;;;;;68.00;46.00;;;;;3.13;54.93;102037.75;5100870;27;45288;-60
2022/03/07 07:46:03;;;;;;;;;48.33;40.00;;;;;3.19;55.20;102041.19;5082159;28;45413;-60
2022/03/07 07:48:28;;;;;;;;;65.67;46.33;;;;;3.28;54.69;102040.22;5087362;27;45979;-61
2022/03/07 07:50:54;;;;;;;;;64.00;43.67;;;;;3.32;54.75;102039.34;5108041;27;45788;-59
2022/03/07 07:53:21;;;;;;;;;55.33;44.00;;;;;3.39;54.61;102040.13;5103059;27;45399;-57
2022/03/07 07:55:47;;;;;;;;;62.33;44.67;;;;;3.41;54.58;102031.44;5089283;27;45266;-58
2022/03/07 07:58:13;;;;;;;;;49.00;39.67;;;;;3.44;54.22;102033.16;5111924;27;46203;-60
2022/03/07 08:00:38;;;;;;;;;62.33;41.33;;;;;3.47;53.87;102028.75;5111737;27;45485;-61
2022/03/07 08:03:04;;;;;;;;;50.67;37.00;;;;;3.50;54.15;102022.69;5109126;27;45525;-59
2022/03/07 08:05:29;;;;;;;;;48.33;39.67;;;;;3.55;53.80;102028.69;5107111;27;45514;-60
2022/03/07 08:07:55;;;;;;;;;61.33;43.33;;;;;3.58;53.62;102020.88;5108513;27;45497;-60
2022/03/07 08:10:20;;;;;;;;;53.33;42.00;;;;;3.67;53.49;102028.59;5112946;27;45496;-60
2022/03/07 08:12:47;;;;;;;;;55.67;44.00;;;;;3.78;53.61;102029.31;5110978;27;45476;-63
2022/03/07 08:15:13;;;;;;;;;58.33;38.33;;;;;3.84;53.27;102025.81;5109133;27;45822;-64
2022/03/07 08:17:46;;;;;;;;;51.00;39.33;;;;;3.88;52.72;102024.91;5100077;27;46129;-61
2022/03/07 08:20:17;;;;;;;;;58.33;43.00;;;;;3.87;53.13;102030.97;5108557;27;45347;-62
2022/03/07 08:22:43;;;;;;;;;61.00;43.00;;;;;3.90;52.86;102034.41;5094667;27;45484;-63
2022/03/07 08:25:10;;;;;;;;;56.00;43.67;;;;;3.95;52.47;102012.63;5084775;27;46537;-63
2022/03/07 08:27:36;;;;;;;;;44.67;41.00;;;;;4.03;52.69;102026.44;5104292;27;45944;-62
2022/03/07 08:30:07;;;;;;;;;42.33;39.33;;;;;4.12;51.95;102015.94;5110557;27;45475;-61
2022/03/07 08:32:34;;;;;;;;;58.33;41.33;;;;;4.17;51.79;102028.00;5097802;27;45534;-63
2022/03/07 08:34:59;;;;;;;;;48.67;41.00;;;;;4.20;51.85;102020.19;5102178;27;45351;-61
2022/03/07 08:37:25;;;;;;;;;49.33;43.00;;;;;4.25;51.95;102014.03;5112018;27;45294;-63
2022/03/07 08:39:51;;;;;;;;;52.67;45.33;;;;;4.33;51.90;102007.81;5110799;27;45324;-63
2022/03/07 08:42:17;;;;;;;;;54.33;37.33;;;;;4.44;51.00;102008.56;5088985;27;45454;-63
2022/03/07 08:44:42;;;;;;;;;57.33;43.33;;;;;4.56;51.56;102004.91;5107678;27;45407;-59
2022/03/07 08:47:09;;;;;;;;;44.67;35.33;;;;;4.61;50.64;101994.41;5111531;27;45388;-59
2022/03/07 08:49:35;;;;;;;;;53.00;41.33;;;;;4.69;50.55;102010.81;5108037;27;45373;-59
2022/03/07 08:52:00;;;;;;;;;50.67;38.67;;;;;4.72;50.68;101995.97;5108634;27;45358;-62
2022/03/07 08:54:26;;;;;;;;;45.67;39.67;;;;;4.80;50.44;102010.66;5108303;27;45549;-61
2022/03/07 08:56:51;;;;;;;;;48.67;39.67;;;;;4.86;49.69;102010.56;5107098;27;45975;-61
2022/03/07 08:59:17;;;;;;;;;52.33;43.00;;;;;4.90;49.64;102007.91;5111038;27;45288;-61
2022/03/07 09:01:43;;;;;;;;;51.00;41.00;;;;;4.95;49.97;102005.19;5109650;27;45236;-62
2022/03/07 09:04:08;;;;;;;;;54.33;40.00;;;;;4.95;49.69;102006.06;5108926;27;45573;-58
2022/03/07 09:06:33;;;;;;;;;47.33;40.00;;;;;5.04;49.65;102003.28;5102406;27;45173;-57
2022/03/07 09:08:59;;;;;;;;;50.33;40.33;;;;;5.12;48.90;101994.47;5111748;27;45400;-59
2022/03/07 09:11:25;;;;;;;;;43.33;38.00;;;;;5.19;49.00;101998.72;5111825;27;45454;-61
2022/03/07 09:13:50;;;;;;;;;52.00;39.00;;;;;5.24;49.24;102002.97;5110740;27;45460;-60
2022/03/07 09:16:16;;;;;;;;;52.00;40.00;;;;;5.25;49.45;102002.09;5106564;27;45570;-59
2022/03/07 09:18:42;;;;;;;;;49.67;40.00;;;;;5.24;48.64;101996.91;5110333;27;45446;-62
2022/03/07 09:21:07;;;;;;;;;57.00;43.00;;;;;5.24;48.24;101999.50;5106994;27;45525;-59
2022/03/07 09:23:38;;;;;;;;;44.50;40.25;;;;;5.28;48.93;101994.19;5110865;27;45487;-60
2022/03/07 09:26:08;;;;;;;;;45.50;41.00;;;;;5.33;49.16;101994.13;5108521;27;45284;-60
2022/03/07 09:28:34;;;;;;;;;49.00;41.00;;;;;5.40;48.31;101997.50;5107892;27;45467;-60
2022/03/07 09:31:00;;;;;;;;;55.33;43.33;;;;;5.48;48.65;101999.09;5104482;27;45661;-59
2022/03/07 09:33:26;;;;;;;;;50.25;40.25;;;;;5.51;48.18;101985.94;5104267;27;45522;-59
2022/03/07 09:35:51;;;;;;;;;50.50;40.25;;;;;5.57;48.06;101995.44;5078834;28;45466;-59
2022/03/07 09:38:17;;;;;;;;;59.25;43.25;;;;;5.58;47.32;101999.78;5079655;28;45327;-59
2022/03/07 09:40:43;;;;;;;;;51.25;43.00;;;;;5.60;47.43;101992.75;5083540;27;45370;-59
2022/03/07 09:43:09;;;;;;;;;51.25;38.50;;;;;5.66;47.79;102000.50;5099299;27;45425;-59
2022/03/07 09:45:35;;;;;;;;;46.75;37.50;;;;;5.69;47.05;102002.16;5081233;27;45879;-59
2022/03/07 09:48:01;;;;;;;;;55.00;40.33;;;;;5.74;47.45;101993.34;5079256;28;45391;-59
2022/03/07 09:50:27;;;;;;;;;57.00;41.50;;;;;5.80;47.14;101988.03;5079622;27;45621;-58
2022/03/07 09:52:54;;;;;;;;;42.75;39.25;;;;;5.82;46.10;101981.00;5080037;28;45413;-58
2022/03/07 09:55:21;;;;;;;;;54.00;42.00;;;;;5.85;47.02;101982.72;5079537;27;46616;-59
2022/03/07 09:57:48;;;;;;;;;47.50;39.50;;;;;5.95;46.64;101989.50;5079958;28;45595;-58
2022/03/07 10:00:15;;;;;;;;;53.00;39.33;;;;;6.06;46.85;101978.81;5081653;28;45403;-59
2022/03/07 10:02:50;;;;;;;;;49.25;40.75;;;;;6.14;45.83;101990.84;5084072;27;45415;-58
2022/03/07 10:05:16;;;;;;;;;50.50;42.75;;;;;6.16;45.60;101980.34;5084025;28;45426;-58
2022/03/07 10:07:43;;;;;;;;;48.50;39.75;;;;;6.15;46.03;101983.84;5084150;27;45358;-59
2022/03/07 10:10:09;;;;;;;;;41.33;38.00;;;;;6.17;46.24;101979.47;5084302;27;45351;-59
2022/03/07 10:12:44;;;;;;;;;59.00;40.25;;;;;6.20;46.14;101968.94;5093881;27;45430;-59
2022/03/07 10:15:15;;;;;;;;;47.33;39.00;;;;;6.24;45.36;101981.06;5084010;28;46376;-58
2022/03/07 10:17:50;;;;;;;;;51.50;39.25;;;;;6.22;45.42;101966.28;5083628;27;45255;-58
2022/03/07 10:20:19;;;;;;;;;54.00;43.00;;;;;6.24;45.89;101960.13;5084095;27;45307;-58
2022/03/07 10:22:51;;;;;;;;;52.50;38.25;;;;;6.36;44.91;101964.22;5084070;27;46534;-58
2022/03/07 10:25:22;;;;;;;;;42.75;38.75;;;;;6.41;44.92;101965.84;5083917;28;45412;-58
2022/03/07 10:27:49;;;;;;;;;47.50;38.75;;;;;6.41;44.50;101954.53;5083485;28;45256;-59
2022/03/07 10:30:30;;;;;;;;;53.25;40.50;;;;;6.41;44.62;101951.91;5083943;28;45284;-59
2022/03/07 10:32:56;;;;;;;;;50.50;39.75;;;;;6.51;45.18;101958.66;5083385;28;45243;-59
2022/03/07 10:35:31;;;;;;;;;50.25;40.75;;;;;6.57;44.18;101953.28;5083568;28;46242;-58
2022/03/07 10:38:03;;;;;;;;;47.25;34.00;;;;;6.58;43.39;101959.38;5091278;27;45424;-59
2022/03/07 10:40:30;;;;;;;;;54.75;40.50;;;;;6.56;43.06;101951.56;5091335;27;45511;-58
2022/03/07 10:43:00;;;;;;;;;50.25;39.00;;;;;6.53;43.07;101946.38;5103899;27;45227;-59
2022/03/07 10:45:27;;;;;;;;;47.50;36.75;;;;;6.58;43.61;101951.53;5087173;27;45375;-58
2022/03/07 10:47:55;;;;;;;;;39.25;27.50;;;;;6.62;43.43;101946.16;5083224;27;45406;-59
2022/03/07 10:50:26;;;;;;;;;55.75;37.50;;;;;6.64;42.63;101941.78;5083417;27;45316;-59
2022/03/07 10:52:58;;;;;;;;;44.25;37.25;;;;;6.66;43.11;101946.97;5083692;27;45265;-59
2022/03/07 10:55:26;;;;;;;;;45.75;38.75;;;;;6.71;42.98;101935.50;5082914;28;45437;-59
2022/03/07 10:57:51;;;;;;;;;50.25;41.00;;;;;6.78;42.61;101938.78;5083014;28;45340;-59
2022/03/07 11:00:18;;;;;;;;;55.25;42.00;;;;;6.85;42.06;101939.50;5083216;27;45249;-59
2022/03/07 11:02:45;;;;;;;;;32.75;32.25;;;;;6.88;42.05;101940.31;5083307;27;45415;-59
2022/03/07 11:05:15;;;;;;;;;46.25;36.00;;;;;6.92;42.04;101930.59;5082916;28;45347;-59
2022/03/07 11:07:44;;;;;;;;;45.25;35.00;;;;;6.94;42.24;101926.19;5082797;27;45473;-59
2022/03/07 11:10:12;;;;;;;;;40.25;34.75;;;;;6.96;41.89;101937.50;5090243;27;45208;-59
2022/03/07 11:12:38;;;;;;;;;39.50;34.25;;;;;6.95;41.89;101923.56;5101705;27;45457;-59